RYR69LP EPMO-LEPA
Flight info
| Callsign | RYR69LP |
|---|---|
| Flight time | N/A |
| Altitude | 36000 |
| Route | EVINA DCT NAVUR N744 TUSIN DCT MIKOV DCT DETSA/N0450F350 DCT VOG DCT GEKBA/N0451F290 DCT VAMTU DCT KOLON DCT GANGU DCT PADKO DCT VATIR N852 VERSO L129 LUNIK |
| Aircraft | A320/M-SDE3FGHIRWY/LB1 |
Departure
| Time | 2026-04-28 07:52 |
|---|---|
| Airport | Warsaw Modlin Airport (EPMO) |
Arrival
| Time | N/A |
|---|---|
| Airport | Palma de Mallorca Airport (LEPA) |
| Time | Latitude | Longitude | Altitude | Speed | Heading |
|---|---|---|---|---|---|
| 2026-04-28 07:40 | 52.44738 | 20.65179 | 338 ft | 0 kts | 206° |
| 2026-04-28 07:45 | 52.44748 | 20.65187 | 338 ft | 4 kts | 210° |
| 2026-04-28 07:46 | 52.44770 | 20.65212 | 338 ft | 4 kts | 224° |
| 2026-04-28 07:46 | 52.44787 | 20.65246 | 338 ft | 4 kts | 244° |
| 2026-04-28 07:46 | 52.44793 | 20.65273 | 338 ft | 0 kts | 261° |
| 2026-04-28 07:48 | 52.44792 | 20.65263 | 338 ft | 4 kts | 261° |
| 2026-04-28 07:48 | 52.44781 | 20.65265 | 338 ft | 1 kts | 93° |
| 2026-04-28 07:49 | 52.44803 | 20.65386 | 338 ft | 24 kts | 78° |
| 2026-04-28 07:49 | 52.44821 | 20.65579 | 338 ft | 26 kts | 82° |
| 2026-04-28 07:49 | 52.44847 | 20.65883 | 338 ft | 27 kts | 82° |
| 2026-04-28 07:49 | 52.44876 | 20.66197 | 338 ft | 29 kts | 81° |
| 2026-04-28 07:50 | 52.44920 | 20.66626 | 338 ft | 43 kts | 81° |
| 2026-04-28 07:50 | 52.44962 | 20.67038 | 338 ft | 21 kts | 70° |
| 2026-04-28 07:50 | 52.45042 | 20.67059 | 338 ft | 10 kts | 346° |
| 2026-04-28 07:50 | 52.45139 | 20.67046 | 338 ft | 19 kts | 355° |
| 2026-04-28 07:51 | 52.45266 | 20.66990 | 339 ft | 20 kts | 326° |
| 2026-04-28 07:51 | 52.45281 | 20.66894 | 338 ft | 2 kts | 261° |
| 2026-04-28 07:51 | 52.45278 | 20.66859 | 338 ft | 12 kts | 261° |
| 2026-04-28 07:51 | 52.45226 | 20.66308 | 337 ft | 83 kts | 261° |
| 2026-04-28 07:52 | 52.45107 | 20.65066 | 338 ft | 134 kts | 261° |
| 2026-04-28 07:52 | 52.44945 | 20.63338 | 378 ft | 169 kts | 261° |
| 2026-04-28 07:52 | 52.44771 | 20.61429 | 936 ft | 169 kts | 262° |
| 2026-04-28 07:52 | 52.44613 | 20.59517 | 1540 ft | 171 kts | 262° |
| 2026-04-28 07:53 | 52.44458 | 20.57574 | 2171 ft | 172 kts | 262° |
| 2026-04-28 07:53 | 52.44290 | 20.55577 | 2535 ft | 186 kts | 261° |
| 2026-04-28 07:53 | 52.43875 | 20.53455 | 2705 ft | 209 kts | 234° |
| 2026-04-28 07:53 | 52.42660 | 20.51998 | 2913 ft | 232 kts | 194° |
| 2026-04-28 07:54 | 52.40981 | 20.51588 | 3213 ft | 255 kts | 186° |
| 2026-04-28 07:54 | 52.39190 | 20.51313 | 3841 ft | 265 kts | 185° |
| 2026-04-28 07:54 | 52.37338 | 20.51058 | 4619 ft | 269 kts | 185° |
| 2026-04-28 07:54 | 52.35457 | 20.50797 | 5388 ft | 273 kts | 185° |
| 2026-04-28 07:55 | 52.33552 | 20.50523 | 6125 ft | 277 kts | 185° |
| 2026-04-28 07:55 | 52.31621 | 20.50235 | 6852 ft | 280 kts | 186° |
| 2026-04-28 07:55 | 52.29663 | 20.49935 | 7553 ft | 284 kts | 186° |
| 2026-04-28 07:55 | 52.27684 | 20.49629 | 8225 ft | 287 kts | 186° |
| 2026-04-28 07:56 | 52.25682 | 20.49316 | 8876 ft | 290 kts | 186° |
| 2026-04-28 07:56 | 52.23660 | 20.48996 | 9503 ft | 294 kts | 186° |
| 2026-04-28 07:56 | 52.21608 | 20.48675 | 10088 ft | 298 kts | 186° |
| 2026-04-28 07:56 | 52.19466 | 20.48341 | 10213 ft | 319 kts | 186° |
| 2026-04-28 07:57 | 52.17219 | 20.47991 | 10345 ft | 336 kts | 186° |
| 2026-04-28 07:57 | 52.14829 | 20.47619 | 10476 ft | 352 kts | 186° |
| 2026-04-28 07:57 | 52.12337 | 20.47228 | 10604 ft | 367 kts | 186° |
| 2026-04-28 07:57 | 52.09745 | 20.46824 | 10731 ft | 380 kts | 186° |
| 2026-04-28 07:58 | 52.07068 | 20.46410 | 10855 ft | 392 kts | 186° |
| 2026-04-28 07:58 | 52.04313 | 20.45987 | 11131 ft | 399 kts | 185° |
| 2026-04-28 07:58 | 52.01568 | 20.45567 | 11510 ft | 402 kts | 186° |
| 2026-04-28 07:58 | 51.98768 | 20.45138 | 11905 ft | 405 kts | 186° |
| 2026-04-28 07:59 | 51.95946 | 20.44706 | 12293 ft | 408 kts | 186° |
| 2026-04-28 07:59 | 51.93103 | 20.44269 | 12671 ft | 410 kts | 186° |
| 2026-04-28 07:59 | 51.90251 | 20.43834 | 13037 ft | 413 kts | 185° |
| 2026-04-28 07:59 | 51.87376 | 20.43397 | 13394 ft | 416 kts | 185° |
| 2026-04-28 08:00 | 51.84482 | 20.42955 | 13742 ft | 418 kts | 186° |
| 2026-04-28 08:00 | 51.81569 | 20.42505 | 14082 ft | 420 kts | 186° |
| 2026-04-28 08:00 | 51.78685 | 20.42057 | 14411 ft | 423 kts | 186° |
| 2026-04-28 08:00 | 51.75742 | 20.41603 | 14734 ft | 425 kts | 186° |
| 2026-04-28 08:01 | 51.72789 | 20.41152 | 15043 ft | 427 kts | 186° |
| 2026-04-28 08:01 | 51.69811 | 20.40697 | 15339 ft | 430 kts | 186° |
| 2026-04-28 08:01 | 51.66828 | 20.40241 | 15619 ft | 432 kts | 186° |
| 2026-04-28 08:01 | 51.63818 | 20.39779 | 15886 ft | 434 kts | 186° |
| 2026-04-28 08:02 | 51.60804 | 20.39317 | 16142 ft | 436 kts | 186° |
| 2026-04-28 08:02 | 51.57784 | 20.38859 | 16382 ft | 438 kts | 185° |
| 2026-04-28 08:02 | 51.54774 | 20.38406 | 16609 ft | 439 kts | 185° |
| 2026-04-28 08:02 | 51.51729 | 20.37945 | 16826 ft | 441 kts | 185° |
| 2026-04-28 08:03 | 51.48663 | 20.37482 | 17032 ft | 443 kts | 185° |
| 2026-04-28 08:03 | 51.45586 | 20.37018 | 17229 ft | 444 kts | 185° |
| 2026-04-28 08:03 | 51.42511 | 20.36352 | 17415 ft | 445 kts | 192° |
| 2026-04-28 08:03 | 51.39527 | 20.35006 | 17598 ft | 447 kts | 200° |